createdAt,value
2023-01-25T00:01:38.809Z,10.40
2023-01-25T00:04:07.034Z,10.40
2023-01-25T00:06:34.581Z,10.40
2023-01-25T00:09:02.473Z,10.40
2023-01-25T00:11:30.638Z,10.40
2023-01-25T00:13:58.349Z,10.40
2023-01-25T00:16:34.858Z,10.40
2023-01-25T00:19:04.190Z,10.40
2023-01-25T00:21:35.089Z,10.40
2023-01-25T00:24:04.018Z,10.40
2023-01-25T00:26:33.749Z,10.40
2023-01-25T00:29:02.040Z,10.40
2023-01-25T00:31:36.582Z,10.40
2023-01-25T00:34:26.142Z,10.40
2023-01-25T00:37:00.604Z,10.40
2023-01-25T00:39:28.572Z,10.40
2023-01-25T00:41:56.810Z,10.40
2023-01-25T00:44:24.828Z,10.40
2023-01-25T00:47:01.159Z,10.40
2023-01-25T00:49:31.035Z,10.40
2023-01-25T00:51:59.286Z,10.40
2023-01-25T00:54:27.129Z,10.40
2023-01-25T00:56:56.733Z,10.40
2023-01-25T00:59:25.257Z,10.30
2023-01-25T01:01:54.857Z,10.40
2023-01-25T01:04:26.280Z,10.40
2023-01-25T01:06:55.193Z,10.40
2023-01-25T01:09:24.533Z,10.40
2023-01-25T01:11:53.994Z,10.30
2023-01-25T01:14:24.557Z,10.40
2023-01-25T01:16:52.390Z,10.40
2023-01-25T01:19:20.431Z,10.40
2023-01-25T01:21:48.432Z,10.40
2023-01-25T01:24:18.289Z,10.40
2023-01-25T01:26:45.903Z,10.40
2023-01-25T01:29:16.558Z,10.40
2023-01-25T01:31:44.481Z,10.40
2023-01-25T01:34:20.724Z,10.40
2023-01-25T01:36:48.400Z,10.30
2023-01-25T01:39:16.316Z,10.30
2023-01-25T01:41:44.259Z,10.30
2023-01-25T01:44:25.679Z,10.30
2023-01-25T01:46:59.156Z,10.30
2023-01-25T01:52:20.755Z,10.30
2023-01-25T01:54:56.403Z,10.30
2023-01-25T01:57:38.441Z,10.30
2023-01-25T02:00:19.407Z,10.30
2023-01-25T02:02:55.309Z,10.30
2023-01-25T02:05:27.323Z,10.30
2023-01-25T02:07:57.006Z,10.30
2023-01-25T02:10:31.831Z,10.30
2023-01-25T02:13:00.630Z,10.30
2023-01-25T02:15:35.064Z,10.30
2023-01-25T02:18:05.819Z,10.30
2023-01-25T02:20:50.847Z,10.30
2023-01-25T02:23:34.362Z,10.30
2023-01-25T02:26:13.466Z,10.30
2023-01-25T02:28:50.898Z,10.30
2023-01-25T02:31:19.143Z,10.20
2023-01-25T02:33:47.060Z,10.20
2023-01-25T02:36:24.580Z,10.20
2023-01-25T02:38:58.744Z,10.20
2023-01-25T02:41:38.127Z,10.10
2023-01-25T02:44:09.835Z,10.10
2023-01-25T02:46:39.856Z,10.10
2023-01-25T02:49:09.950Z,10.10
2023-01-25T02:51:41.429Z,10.00
2023-01-25T02:56:58.650Z,10.00
2023-01-25T02:59:27.656Z,10.00
2023-01-25T03:02:00.828Z,10.00
2023-01-25T03:04:32.304Z,10.00
2023-01-25T03:07:00.476Z,10.00
2023-01-25T03:09:29.701Z,10.00
2023-01-25T03:11:57.633Z,10.00
2023-01-25T03:14:25.971Z,9.90
2023-01-25T03:16:54.263Z,9.90
2023-01-25T03:19:23.569Z,9.90
2023-01-25T03:24:38.027Z,9.80
2023-01-25T03:27:19.153Z,9.80
2023-01-25T03:29:57.532Z,9.80
2023-01-25T03:32:31.318Z,9.70
2023-01-25T03:35:01.299Z,9.70
2023-01-25T03:37:30.546Z,9.70
2023-01-25T03:39:58.799Z,9.70
2023-01-25T03:42:27.240Z,9.70
2023-01-25T03:44:57.070Z,9.60
2023-01-25T03:47:25.528Z,9.60
2023-01-25T03:49:55.229Z,9.60
2023-01-25T03:52:51.661Z,9.60
2023-01-25T03:55:38.239Z,9.60
2023-01-25T03:58:06.460Z,9.50
2023-01-25T04:00:35.252Z,9.50
2023-01-25T04:03:02.789Z,9.50
2023-01-25T04:05:30.928Z,9.50
2023-01-25T04:07:58.524Z,9.50
2023-01-25T04:10:28.737Z,9.50
2023-01-25T04:13:03.323Z,9.50
2023-01-25T04:15:31.381Z,9.50
2023-01-25T04:18:01.114Z,9.50
2023-01-25T04:20:36.803Z,9.50
2023-01-25T04:23:04.261Z,9.60
2023-01-25T04:25:34.432Z,9.60
2023-01-25T04:28:02.658Z,9.60
2023-01-25T04:30:31.885Z,9.60
2023-01-25T04:33:05.048Z,9.70
2023-01-25T04:35:33.164Z,9.70
2023-01-25T04:38:05.150Z,9.70
2023-01-25T04:40:38.814Z,9.70
2023-01-25T04:43:08.507Z,9.80
2023-01-25T04:45:36.778Z,9.80
2023-01-25T04:48:09.942Z,9.80
2023-01-25T04:50:42.480Z,9.80
2023-01-25T04:53:12.891Z,9.80
2023-01-25T04:55:43.639Z,9.80
2023-01-25T04:58:11.153Z,9.80
2023-01-25T05:00:39.641Z,9.80
2023-01-25T05:03:07.616Z,9.80
2023-01-25T05:05:35.472Z,9.80
2023-01-25T05:08:07.672Z,9.80
2023-01-25T05:10:35.459Z,9.80
2023-01-25T05:13:22.136Z,9.70
2023-01-25T05:15:51.664Z,9.80
2023-01-25T05:18:19.727Z,9.80
2023-01-25T05:20:49.005Z,9.80
2023-01-25T05:23:17.473Z,9.80
2023-01-25T05:26:06.751Z,9.80
2023-01-25T05:28:35.121Z,9.80
2023-01-25T05:31:08.423Z,9.80
2023-01-25T05:33:36.676Z,9.80
2023-01-25T05:36:04.760Z,9.80
2023-01-25T05:38:34.312Z,9.80
2023-01-25T05:41:02.245Z,9.80
2023-01-25T05:43:30.101Z,9.80
2023-01-25T05:45:58.948Z,9.80
2023-01-25T05:48:26.713Z,9.80
2023-01-25T05:50:58.526Z,9.80
2023-01-25T05:53:29.716Z,9.80
2023-01-25T05:56:11.291Z,9.80
2023-01-25T05:58:39.913Z,9.80
2023-01-25T06:01:08.761Z,9.70
2023-01-25T06:03:41.147Z,9.70
2023-01-25T06:06:09.335Z,9.70
2023-01-25T06:08:37.369Z,9.70
2023-01-25T06:11:12.027Z,9.70
2023-01-25T06:13:41.666Z,9.70
2023-01-25T06:16:09.885Z,9.70
2023-01-25T06:18:46.518Z,9.70
2023-01-25T06:21:33.545Z,9.70
2023-01-25T06:24:01.606Z,9.70
2023-01-25T06:26:29.728Z,9.70
2023-01-25T06:28:57.386Z,9.80
2023-01-25T06:31:25.840Z,9.80
2023-01-25T06:33:53.639Z,9.80
2023-01-25T06:36:26.538Z,9.90
2023-01-25T06:38:54.654Z,9.90
2023-01-25T06:41:23.491Z,9.80
2023-01-25T06:43:54.392Z,9.80
2023-01-25T06:46:33.557Z,9.80
2023-01-25T06:49:01.678Z,9.80
2023-01-25T06:51:30.312Z,9.80
2023-01-25T06:54:00.461Z,9.70
2023-01-25T06:56:28.134Z,9.70
2023-01-25T06:58:55.690Z,9.70
2023-01-25T07:01:27.936Z,9.60
2023-01-25T07:03:58.215Z,9.60
2023-01-25T07:06:27.645Z,9.60
2023-01-25T07:08:54.925Z,9.60
2023-01-25T07:11:22.866Z,9.60
2023-01-25T07:13:51.321Z,9.60
2023-01-25T07:16:27.660Z,9.60
2023-01-25T07:18:55.865Z,9.60
2023-01-25T07:21:24.441Z,9.60
2023-01-25T07:23:52.983Z,9.60
2023-01-25T07:26:26.781Z,9.60
2023-01-25T07:28:56.581Z,9.60
2023-01-25T07:31:25.517Z,9.60
2023-01-25T07:33:58.902Z,9.60
2023-01-25T07:36:26.898Z,9.60
2023-01-25T07:38:55.735Z,9.60
2023-01-25T07:41:25.343Z,9.70
2023-01-25T07:43:53.113Z,9.70
2023-01-25T07:46:40.637Z,9.70
2023-01-25T07:49:08.240Z,9.70
2023-01-25T07:51:36.895Z,9.80
2023-01-25T07:54:05.531Z,9.80
2023-01-25T07:56:38.855Z,9.80
2023-01-25T07:59:08.798Z,9.80
2023-01-25T08:01:37.507Z,9.90
2023-01-25T08:04:06.354Z,9.90
2023-01-25T08:06:38.630Z,9.90
2023-01-25T08:09:12.526Z,9.80
2023-01-25T08:11:41.855Z,9.90
2023-01-25T08:14:09.693Z,9.90
2023-01-25T08:16:40.150Z,9.90
2023-01-25T08:19:07.768Z,9.90
2023-01-25T08:21:35.962Z,9.90
2023-01-25T08:24:06.621Z,9.90
2023-01-25T08:26:36.446Z,10.00
2023-01-25T08:29:05.011Z,10.00
2023-01-25T08:31:55.900Z,10.00
2023-01-25T08:34:23.671Z,10.10
2023-01-25T08:39:19.919Z,10.20
2023-01-25T08:41:47.660Z,10.20
2023-01-25T08:44:24.384Z,10.20
2023-01-25T08:46:53.004Z,10.30
2023-01-25T08:49:21.145Z,10.30
2023-01-25T08:51:51.451Z,10.40
2023-01-25T08:54:19.543Z,10.40
2023-01-25T08:56:47.179Z,10.40
2023-01-25T08:59:15.191Z,10.40
2023-01-25T09:01:43.579Z,10.40
2023-01-25T09:04:10.910Z,10.40
2023-01-25T09:06:39.742Z,10.40
2023-01-25T09:09:08.808Z,10.40
2023-01-25T09:11:38.429Z,10.40
2023-01-25T09:14:06.776Z,10.40
2023-01-25T09:16:34.997Z,10.50
2023-01-25T09:19:10.443Z,10.50
2023-01-25T09:21:39.786Z,10.50
2023-01-25T09:24:08.644Z,10.50
2023-01-25T09:26:42.937Z,10.50
2023-01-25T09:29:12.259Z,10.50
2023-01-25T09:31:44.303Z,10.40
2023-01-25T09:34:40.066Z,10.40
2023-01-25T09:37:08.006Z,10.40
2023-01-25T09:39:35.797Z,10.40
2023-01-25T09:42:14.578Z,10.50
2023-01-25T09:44:52.990Z,10.50
2023-01-25T09:48:03.007Z,10.50
2023-01-25T09:50:38.695Z,10.50
2023-01-25T09:53:22.104Z,10.50
2023-01-25T09:55:53.688Z,10.50
2023-01-25T09:58:25.213Z,10.50
2023-01-25T10:01:14.521Z,10.60
2023-01-25T10:03:54.461Z,10.70
2023-01-25T10:06:30.353Z,10.80
2023-01-25T10:09:09.007Z,10.90
2023-01-25T10:11:39.447Z,10.90
2023-01-25T10:14:19.598Z,10.90
2023-01-25T10:16:51.461Z,11.00
2023-01-25T10:19:42.961Z,11.10
2023-01-25T10:22:24.193Z,11.20
2023-01-25T10:25:01.946Z,11.20
2023-01-25T10:27:36.797Z,11.20
2023-01-25T10:30:11.336Z,11.30
2023-01-25T10:32:51.155Z,11.40
2023-01-25T10:35:34.463Z,11.40
2023-01-25T10:37:51.591Z,11.50
2023-01-25T10:40:25.004Z,11.50
2023-01-25T10:43:03.430Z,11.50
2023-01-25T10:45:31.173Z,11.40
2023-01-25T10:48:05.727Z,11.50
2023-01-25T10:50:43.213Z,11.50
2023-01-25T10:53:29.927Z,11.50
2023-01-25T10:56:04.404Z,11.50
2023-01-25T10:58:43.854Z,11.50
2023-01-25T11:01:14.583Z,11.50
2023-01-25T11:03:46.414Z,11.50
2023-01-25T11:06:13.918Z,11.60
2023-01-25T11:08:43.488Z,11.60
2023-01-25T11:11:23.956Z,11.60
2023-01-25T11:13:55.364Z,11.70
2023-01-25T11:16:38.552Z,11.70
2023-01-25T11:19:27.925Z,11.80
2023-01-25T11:21:58.143Z,11.80
2023-01-25T11:24:34.827Z,11.90
2023-01-25T11:27:26.596Z,11.90
2023-01-25T11:30:13.857Z,12.00
2023-01-25T11:32:42.634Z,12.00
2023-01-25T11:35:20.684Z,12.00
2023-01-25T11:38:15.215Z,12.00
2023-01-25T11:40:49.805Z,12.10
2023-01-25T11:43:27.248Z,12.10
2023-01-25T11:46:20.067Z,12.20
2023-01-25T11:48:54.112Z,12.20
2023-01-25T11:51:34.838Z,12.30
2023-01-25T11:54:15.148Z,12.30
2023-01-25T11:57:12.543Z,12.40
2023-01-25T11:59:55.146Z,12.50
2023-01-25T12:02:52.719Z,12.50
2023-01-25T12:05:45.054Z,12.60
2023-01-25T12:08:43.933Z,12.70
2023-01-25T12:11:35.000Z,12.90
2023-01-25T12:14:18.947Z,13.00
2023-01-25T12:16:56.636Z,13.00
2023-01-25T12:19:54.226Z,13.10
2023-01-25T12:22:56.407Z,13.20
2023-01-25T12:25:40.384Z,13.30
2023-01-25T12:28:21.343Z,13.40
2023-01-25T12:31:01.898Z,13.50
2023-01-25T12:33:39.310Z,13.80
2023-01-25T12:36:20.260Z,14.10
2023-01-25T12:39:07.066Z,14.30
2023-01-25T12:42:05.140Z,14.50
2023-01-25T12:44:55.352Z,14.80
2023-01-25T12:47:38.439Z,15.10
2023-01-25T12:50:22.333Z,15.40
2023-01-25T12:52:53.948Z,15.70
2023-01-25T12:55:23.665Z,16.00
2023-01-25T12:58:01.659Z,16.30
2023-01-25T13:01:05.712Z,16.70
2023-01-25T13:03:46.331Z,17.00
2023-01-25T13:06:32.873Z,17.20
2023-01-25T13:09:24.457Z,17.40
2023-01-25T13:11:52.553Z,17.60
2023-01-25T13:14:39.339Z,17.80
2023-01-25T13:17:23.128Z,17.90
2023-01-25T13:19:53.735Z,18.00
2023-01-25T13:22:45.415Z,18.10
2023-01-25T13:25:22.321Z,18.30
2023-01-25T13:27:50.420Z,18.50
2023-01-25T13:30:33.550Z,18.40
2023-01-25T13:33:07.483Z,18.60
2023-01-25T13:35:38.263Z,18.80
2023-01-25T13:38:25.134Z,19.10
2023-01-25T13:41:12.537Z,19.20
2023-01-25T13:43:46.343Z,19.30
2023-01-25T13:46:17.191Z,19.40
2023-01-25T13:48:54.173Z,19.70
2023-01-25T13:51:23.530Z,20.00
2023-01-25T13:53:59.520Z,20.40
2023-01-25T13:56:29.955Z,20.90
2023-01-25T13:58:57.941Z,21.30
2023-01-25T14:01:25.903Z,21.30
2023-01-25T14:04:01.394Z,21.00
2023-01-25T14:06:36.273Z,20.60
2023-01-25T14:09:08.240Z,21.00
2023-01-25T14:11:41.227Z,22.20
2023-01-25T14:14:18.754Z,23.60
2023-01-25T14:16:46.528Z,24.90
2023-01-25T14:19:23.060Z,26.20
2023-01-25T14:21:51.280Z,27.20
2023-01-25T14:24:20.902Z,27.60
2023-01-25T14:26:50.126Z,28.00
2023-01-25T14:29:35.957Z,28.60
2023-01-25T14:31:51.815Z,29.20
2023-01-25T14:34:20.984Z,29.60
2023-01-25T14:37:02.559Z,29.60
2023-01-25T14:39:33.804Z,29.80
2023-01-25T14:42:02.607Z,29.90
2023-01-25T14:44:30.833Z,29.80
2023-01-25T14:47:23.994Z,29.70
2023-01-25T14:49:51.822Z,29.60
2023-01-25T14:52:22.329Z,29.50
2023-01-25T14:54:59.037Z,29.40
2023-01-25T14:57:35.923Z,29.20
2023-01-25T15:00:06.867Z,28.30
2023-01-25T15:02:38.358Z,26.60
2023-01-25T15:05:28.179Z,25.00
2023-01-25T15:08:12.488Z,24.50
2023-01-25T15:10:53.480Z,24.70
2023-01-25T15:13:27.175Z,25.10
2023-01-25T15:15:58.914Z,25.50
2023-01-25T15:18:51.453Z,25.70
2023-01-25T15:21:21.946Z,25.70
2023-01-25T15:23:51.819Z,25.10
2023-01-25T15:26:22.801Z,23.90
2023-01-25T15:28:54.955Z,22.80
2023-01-25T15:31:26.901Z,22.20
2023-01-25T15:34:00.271Z,21.90
2023-01-25T15:36:29.612Z,21.80
2023-01-25T15:38:57.223Z,21.50
2023-01-25T15:41:25.629Z,20.70
2023-01-25T15:43:54.046Z,20.00
2023-01-25T15:46:28.285Z,19.40
2023-01-25T15:48:57.238Z,18.80
2023-01-25T15:51:26.315Z,18.20
2023-01-25T15:53:54.193Z,17.60
2023-01-25T15:56:31.697Z,17.10
2023-01-25T15:59:03.403Z,16.70
2023-01-25T16:01:30.933Z,16.30
2023-01-25T16:04:00.320Z,16.00
2023-01-25T16:06:52.917Z,15.70
2023-01-25T16:09:30.151Z,15.50
2023-01-25T16:12:00.517Z,15.30
2023-01-25T16:14:31.174Z,15.10
2023-01-25T16:17:03.590Z,14.90
2023-01-25T16:19:32.161Z,14.80
2023-01-25T16:22:00.115Z,14.60
2023-01-25T16:24:28.282Z,14.50
2023-01-25T16:26:58.439Z,14.40
2023-01-25T16:29:29.895Z,14.30
2023-01-25T16:31:58.705Z,14.30
2023-01-25T16:34:27.113Z,14.10
2023-01-25T16:37:15.731Z,14.00
2023-01-25T16:39:43.410Z,13.90
2023-01-25T16:42:14.679Z,13.80
2023-01-25T16:44:45.493Z,13.70
2023-01-25T16:47:15.577Z,13.60
2023-01-25T16:49:42.991Z,13.50
2023-01-25T16:52:12.461Z,13.50
2023-01-25T16:54:40.483Z,13.50
2023-01-25T16:57:19.938Z,13.40
2023-01-25T16:59:39.657Z,13.40
2023-01-25T17:02:08.226Z,13.30
2023-01-25T17:04:36.006Z,13.30
2023-01-25T17:07:04.056Z,13.30
2023-01-25T17:09:31.953Z,13.30
2023-01-25T17:11:59.834Z,13.30
2023-01-25T17:14:27.675Z,13.30
2023-01-25T17:16:55.837Z,13.20
2023-01-25T17:19:23.824Z,13.20
2023-01-25T17:21:52.045Z,13.10
2023-01-25T17:24:22.163Z,13.00
2023-01-25T17:26:51.369Z,12.90
2023-01-25T17:29:19.439Z,12.90
2023-01-25T17:31:46.975Z,12.80
2023-01-25T17:34:19.618Z,12.80
2023-01-25T17:36:48.794Z,12.80
2023-01-25T17:39:18.063Z,12.70
2023-01-25T17:41:50.817Z,12.70
2023-01-25T17:44:21.148Z,12.60
2023-01-25T17:46:49.875Z,12.50
2023-01-25T17:49:18.498Z,12.50
2023-01-25T17:51:46.882Z,12.40
2023-01-25T17:54:15.144Z,12.40
2023-01-25T17:56:42.530Z,12.40
2023-01-25T17:59:14.538Z,12.40
2023-01-25T18:01:45.714Z,12.30
2023-01-25T18:04:13.695Z,12.30
2023-01-25T18:06:44.626Z,12.20
2023-01-25T18:09:12.494Z,12.20
2023-01-25T18:11:41.366Z,12.20
2023-01-25T18:14:12.914Z,12.10
2023-01-25T18:16:42.103Z,12.10
2023-01-25T18:19:10.741Z,12.00
2023-01-25T18:21:40.011Z,12.00
2023-01-25T18:24:29.426Z,12.00
2023-01-25T18:27:10.314Z,11.90
2023-01-25T18:29:50.373Z,11.80
2023-01-25T18:32:18.675Z,11.80
2023-01-25T18:34:49.146Z,11.80
2023-01-25T18:37:21.104Z,11.70
2023-01-25T18:39:51.233Z,11.80
2023-01-25T18:42:20.234Z,11.70
2023-01-25T18:44:50.780Z,11.70
2023-01-25T18:47:20.645Z,11.70
2023-01-25T18:49:49.805Z,11.70
2023-01-25T18:52:19.392Z,11.70
2023-01-25T18:54:47.466Z,11.70
2023-01-25T18:57:16.093Z,11.70
2023-01-25T18:59:44.110Z,11.60
2023-01-25T19:02:14.088Z,11.70
2023-01-25T19:04:42.739Z,11.70
2023-01-25T19:07:13.925Z,11.70
2023-01-25T19:09:46.715Z,11.70
2023-01-25T19:12:14.471Z,11.70
2023-01-25T19:14:42.513Z,11.60
2023-01-25T19:17:11.096Z,11.60
2023-01-25T19:19:52.803Z,11.50
2023-01-25T19:22:21.191Z,11.50
2023-01-25T19:24:49.325Z,11.50
2023-01-25T19:27:17.042Z,11.50
2023-01-25T19:29:45.088Z,11.50
2023-01-25T19:32:12.872Z,11.50
2023-01-25T19:34:40.686Z,11.50
2023-01-25T19:37:08.440Z,11.40
2023-01-25T19:39:36.209Z,11.40
2023-01-25T19:42:05.128Z,11.40
2023-01-25T19:44:33.158Z,11.40
2023-01-25T19:47:01.075Z,11.30
2023-01-25T19:49:29.524Z,11.20
2023-01-25T19:51:57.964Z,11.20
2023-01-25T19:54:25.532Z,11.10
2023-01-25T19:56:53.813Z,11.10
2023-01-25T19:59:26.074Z,11.10
2023-01-25T20:02:01.923Z,11.10
2023-01-25T20:04:33.116Z,11.00
2023-01-25T20:07:03.780Z,11.00
2023-01-25T20:09:34.972Z,11.00
2023-01-25T20:12:19.682Z,11.00
2023-01-25T20:17:38.238Z,11.10
2023-01-25T20:20:23.513Z,11.10
2023-01-25T20:22:56.574Z,11.10
2023-01-25T20:25:28.346Z,11.10
2023-01-25T20:28:11.035Z,11.00
2023-01-25T20:30:39.532Z,10.90
2023-01-25T20:33:08.051Z,10.90
2023-01-25T20:35:53.855Z,10.90
2023-01-25T20:38:22.395Z,10.90
2023-01-25T20:46:42.766Z,10.70
2023-01-25T20:49:20.311Z,10.70
2023-01-25T20:51:50.800Z,10.70
2023-01-25T20:54:21.463Z,10.70
2023-01-25T20:57:04.925Z,10.70
2023-01-25T20:59:40.364Z,10.70
2023-01-25T21:02:13.810Z,10.70
2023-01-25T21:04:56.659Z,10.60
2023-01-25T21:10:25.017Z,10.60
2023-01-25T21:21:44.306Z,10.40
2023-01-25T21:24:15.915Z,10.30
2023-01-25T21:26:59.007Z,10.30
2023-01-25T21:29:27.597Z,10.20
2023-01-25T21:32:10.193Z,10.10
2023-01-25T21:34:53.317Z,10.10
2023-01-25T21:37:23.101Z,10.00
2023-01-25T21:39:51.559Z,9.90
2023-01-25T21:42:19.681Z,9.90
2023-01-25T21:45:09.677Z,9.80
2023-01-25T21:47:37.543Z,9.80
2023-01-25T21:52:51.654Z,9.80
2023-01-25T21:55:19.648Z,9.80
2023-01-25T21:57:47.730Z,9.80
2023-01-25T22:00:18.158Z,9.80
2023-01-25T22:02:47.453Z,9.80
2023-01-25T22:05:15.605Z,9.70
2023-01-25T22:07:43.537Z,9.70
2023-01-25T22:10:12.555Z,9.70
2023-01-25T22:12:40.616Z,9.70
2023-01-25T22:15:09.228Z,9.70
2023-01-25T22:17:36.933Z,9.60
2023-01-25T22:20:05.341Z,9.50
2023-01-25T22:22:33.171Z,9.40
2023-01-25T22:25:01.096Z,9.40
2023-01-25T22:27:47.433Z,9.30
2023-01-25T22:30:15.883Z,9.30
2023-01-25T22:32:43.812Z,9.30
2023-01-25T22:35:12.314Z,9.30
2023-01-25T22:37:40.154Z,9.30
2023-01-25T22:40:13.973Z,9.30
2023-01-25T22:42:41.807Z,9.30
2023-01-25T22:45:10.141Z,9.40
2023-01-25T22:47:37.744Z,9.40
2023-01-25T22:50:06.460Z,9.40
2023-01-25T22:52:34.218Z,9.40
2023-01-25T22:55:02.124Z,9.30
2023-01-25T22:57:29.709Z,9.40
2023-01-25T22:59:57.726Z,9.30
2023-01-25T23:02:26.272Z,9.40
2023-01-25T23:04:54.108Z,9.50
2023-01-25T23:07:21.849Z,9.50
2023-01-25T23:09:51.329Z,9.50
2023-01-25T23:12:19.378Z,9.50
2023-01-25T23:14:55.134Z,9.50
2023-01-25T23:17:44.601Z,9.60
2023-01-25T23:20:14.120Z,9.60
2023-01-25T23:22:42.659Z,9.60
2023-01-25T23:25:12.977Z,9.60
2023-01-25T23:27:41.464Z,9.60
2023-01-25T23:30:11.082Z,9.60
2023-01-25T23:32:39.179Z,9.60
2023-01-25T23:35:07.660Z,9.60
2023-01-25T23:37:35.256Z,9.60
2023-01-25T23:40:06.448Z,9.70
2023-01-25T23:42:37.419Z,9.70
2023-01-25T23:45:07.321Z,9.70
2023-01-25T23:47:37.247Z,9.80
2023-01-25T23:50:06.145Z,9.80
2023-01-25T23:52:35.422Z,9.80
2023-01-25T23:55:03.599Z,9.80
2023-01-25T23:57:31.611Z,9.80
2023-01-25T23:59:59.040Z,9.80
